Terminal Aerodrome Forecast
Issued by NWS Jackson, MS

Home | Current Version | Previous Version | Text Only | Print | Product List | Glossary On
Versions: 1 2 3 4 5 6 7 8 9 10 11 12 13 14 15 16 17 18 19 20 21 22 23 24 25 26 27 28 29 30 31 32 33 34 35 36 37 38 39 40 41 42
193
FTUS44 KJAN 150239 AAB
TAFHBG
TAF AMD
KHBG 150239Z 1503/1524 00000KT 1/2SM FG BKN004
     FM150400 00000KT 1/4SM FG BKN003
     FM151300 00000KT 1SM BR BKN007
     FM151400 16003KT 4SM BR BKN015
     FM151600 17009KT P6SM SCT035=

USA.gov is the U.S. government's official web portal to all federal, state and local government web resources and services.